Time;durP1;ratioP1;P1;durP2;ratioP2;P2;SDS_P1;SDS_P2;PMS_P1;PMS_P2;Temp;Humidity;BMP_temperature;BMP_pressure;BME280_temperature;BME280_humidity;BME280_pressure;Samples;Min_cycle;Max_cycle;Signal;HPM_P1;HPM_P2
2022/07/21 00:01:20;;;;;;;14.48;12.00;;;21.50;99.90;;;;;;5056068;28;20048;-61
2022/07/21 00:03:45;;;;;;;14.65;10.90;;;21.40;99.90;;;;;;5055466;28;20036;-60
2022/07/21 00:06:11;;;;;;;14.52;10.85;;;21.40;99.90;;;;;;5055452;28;20489;-61
2022/07/21 00:08:36;;;;;;;15.02;11.00;;;21.40;99.90;;;;;;5055638;28;20104;-61
2022/07/21 00:11:02;;;;;;;16.15;10.88;;;21.40;99.90;;;;;;5053967;28;20473;-62
2022/07/21 00:13:28;;;;;;;13.50;9.93;;;21.30;99.90;;;;;;5055642;28;20521;-60
2022/07/21 00:15:53;;;;;;;13.50;9.70;;;21.40;99.90;;;;;;5055847;28;20033;-60
2022/07/21 00:18:20;;;;;;;12.27;9.32;;;21.30;99.90;;;;;;5055598;28;20106;-59
2022/07/21 00:20:46;;;;;;;12.27;9.35;;;21.50;99.90;;;;;;5055336;28;20037;-60
2022/07/21 00:23:12;;;;;;;10.52;9.30;;;21.50;99.90;;;;;;5055391;28;20072;-57
2022/07/21 00:25:37;;;;;;;12.60;8.77;;;21.70;99.90;;;;;;5055346;28;20025;-61
2022/07/21 00:28:04;;;;;;;12.52;9.40;;;21.60;99.90;;;;;;5054663;28;20032;-59
2022/07/21 00:30:31;;;;;;;11.40;9.35;;;21.40;99.90;;;;;;5055151;28;20067;-60
2022/07/21 00:32:56;;;;;;;14.52;9.85;;;21.40;99.90;;;;;;5055153;28;20070;-61
2022/07/21 00:35:22;;;;;;;11.85;8.93;;;21.40;99.90;;;;;;5055160;28;20061;-60
2022/07/21 00:37:48;;;;;;;10.88;9.35;;;21.50;99.90;;;;;;5055425;28;20037;-60
2022/07/21 00:40:15;;;;;;;10.98;9.10;;;21.40;99.90;;;;;;5054990;28;20033;-61
2022/07/21 00:42:42;;;;;;;13.23;9.43;;;21.30;99.90;;;;;;5054795;28;20398;-60
2022/07/21 00:45:08;;;;;;;12.05;8.98;;;21.20;99.90;;;;;;5054580;28;20024;-61
2022/07/21 00:47:34;;;;;;;12.82;9.35;;;21.20;99.90;;;;;;5054595;28;20025;-59
2022/07/21 00:50:05;;;;;;;10.05;8.32;;;21.30;99.90;;;;;;5054408;28;20052;-60
2022/07/21 00:52:31;;;;;;;12.75;9.00;;;21.20;99.90;;;;;;5054921;28;20422;-60
2022/07/21 00:54:57;;;;;;;13.10;9.90;;;21.20;99.90;;;;;;5054685;28;20094;-62
2022/07/21 00:57:22;;;;;;;9.45;8.45;;;21.20;99.90;;;;;;5055122;28;20458;-60
2022/07/21 00:59:48;;;;;;;12.93;9.38;;;21.10;99.90;;;;;;5054364;28;20051;-61
2022/07/21 01:02:14;;;;;;;11.85;8.98;;;21.20;99.90;;;;;;5054489;28;20032;-61
2022/07/21 01:04:40;;;;;;;10.10;8.55;;;21.20;99.90;;;;;;5052938;28;20579;-63
2022/07/21 01:07:06;;;;;;;10.63;9.27;;;21.10;99.90;;;;;;5054163;28;20037;-61
2022/07/21 01:09:33;;;;;;;11.32;8.75;;;21.10;99.90;;;;;;5054453;28;20028;-60
2022/07/21 01:12:00;;;;;;;12.45;9.07;;;21.10;99.90;;;;;;5053036;28;20029;-60
2022/07/21 01:14:27;;;;;;;10.25;9.00;;;21.10;99.90;;;;;;5054209;28;20043;-60
2022/07/21 01:16:53;;;;;;;11.32;8.63;;;21.00;99.90;;;;;;5054305;28;20028;-60
2022/07/21 01:19:19;;;;;;;;;;;21.00;99.90;;;;;;5053151;28;20086;-61
2022/07/21 01:21:46;;;;;;;10.77;8.35;;;21.20;99.90;;;;;;5052791;28;20377;-61
2022/07/21 01:24:13;;;;;;;12.70;9.85;;;21.10;99.90;;;;;;5054284;28;20083;-60
2022/07/21 01:26:51;;;;;;;12.07;8.00;;;21.10;99.90;;;;;;5054000;28;20033;-63
2022/07/21 01:29:17;;;;;;;10.73;9.20;;;21.10;99.90;;;;;;5054353;28;20017;-61
2022/07/21 01:31:43;;;;;;;;;;;21.10;99.90;;;;;;5054738;28;20025;-61
2022/07/21 01:34:09;;;;;;;11.87;9.27;;;21.10;99.90;;;;;;5053797;28;19905;-63
2022/07/21 01:36:35;;;;;;;13.20;8.40;;;21.10;99.90;;;;;;5054411;28;20039;-61
2022/07/21 01:41:46;;;;;;;12.20;8.85;;;21.10;99.90;;;;;;5053584;28;20150;-61
2022/07/21 01:44:13;;;;;;;12.80;9.32;;;21.10;99.90;;;;;;5053722;28;20491;-61
2022/07/21 01:46:44;;;;;;;11.52;8.63;;;21.10;99.90;;;;;;5053577;28;20017;-61
2022/07/21 01:49:12;;;;;;;10.85;8.93;;;21.20;99.90;;;;;;5053814;28;20110;-61
2022/07/21 01:51:37;;;;;;;12.40;9.40;;;21.20;99.90;;;;;;5052834;28;20055;-61
2022/07/21 01:54:04;;;;;;;13.80;8.85;;;21.20;99.90;;;;;;5054522;28;20052;-61
2022/07/21 01:56:30;;;;;;;13.20;9.20;;;21.10;99.90;;;;;;5053463;28;20025;-59
2022/07/21 01:58:57;;;;;;;14.13;9.30;;;21.20;99.90;;;;;;5053934;28;20029;-61
2022/07/21 02:01:26;;;;;;;11.35;8.93;;;21.20;99.90;;;;;;5053784;28;20116;-62
2022/07/21 02:03:52;;;;;;;12.85;9.02;;;21.20;99.90;;;;;;5052368;28;20485;-61
2022/07/21 02:06:18;;;;;;;13.35;8.88;;;21.20;99.90;;;;;;5053920;28;20417;-61
2022/07/21 02:08:44;;;;;;;15.38;9.07;;;21.20;99.90;;;;;;5053691;28;20482;-62
2022/07/21 02:11:10;;;;;;;10.38;8.60;;;21.20;99.90;;;;;;5053468;28;20029;-61
2022/07/21 02:13:36;;;;;;;10.65;8.55;;;21.20;99.90;;;;;;5053156;28;20112;-61
2022/07/21 02:16:03;;;;;;;10.30;8.52;;;21.20;99.90;;;;;;5053554;28;20127;-62
2022/07/21 02:18:28;;;;;;;12.50;9.00;;;21.20;99.90;;;;;;5054201;28;20112;-61
2022/07/21 02:20:54;;;;;;;10.48;8.10;;;21.20;99.90;;;;;;5053643;28;20464;-61
2022/07/21 02:23:23;;;;;;;15.45;9.30;;;21.20;99.90;;;;;;5054841;28;20051;-59
2022/07/21 02:25:49;;;;;;;14.15;9.25;;;21.30;99.90;;;;;;5053567;28;20025;-59
2022/07/21 02:28:14;;;;;;;;;;;21.30;99.90;;;;;;5053452;28;20032;-60
2022/07/21 02:30:41;;;;;;;10.85;9.07;;;21.30;99.90;;;;;;5053073;28;19905;-60
2022/07/21 02:33:06;;;;;;;11.93;9.02;;;21.30;99.90;;;;;;5053447;28;20025;-60
2022/07/21 02:35:32;;;;;;;9.75;8.70;;;21.30;99.90;;;;;;5052857;28;20029;-62
2022/07/21 02:37:58;;;;;;;12.38;9.38;;;21.30;99.90;;;;;;5053089;28;20448;-61
2022/07/21 02:40:24;;;;;;;11.48;8.82;;;21.30;99.90;;;;;;5053024;28;20031;-61
2022/07/21 02:42:50;;;;;;;12.73;8.65;;;21.30;99.90;;;;;;5054331;28;20029;-60
2022/07/21 02:45:15;;;;;;;12.85;8.80;;;21.30;99.90;;;;;;5053949;28;20528;-62
2022/07/21 02:47:53;;;;;;;13.60;9.18;;;21.20;99.90;;;;;;5054526;28;20033;-61
2022/07/21 02:50:19;;;;;;;10.95;8.95;;;21.20;99.90;;;;;;5053846;28;20485;-63
2022/07/21 02:52:45;;;;;;;12.35;9.07;;;21.10;99.90;;;;;;5052834;28;20032;-61
2022/07/21 02:55:11;;;;;;;10.80;8.95;;;21.10;99.90;;;;;;5052646;28;20020;-62
2022/07/21 02:57:37;;;;;;;11.40;9.18;;;21.20;99.90;;;;;;5052668;28;20029;-62
2022/07/21 03:00:05;;;;;;;12.50;9.38;;;21.20;99.90;;;;;;5052683;28;20029;-62
2022/07/21 03:02:30;;;;;;;14.13;8.85;;;21.20;99.90;;;;;;5053001;28;20051;-62
2022/07/21 03:04:56;;;;;;;12.32;9.73;;;21.30;99.90;;;;;;5051944;28;20049;-64
2022/07/21 03:07:22;;;;;;;13.30;9.70;;;21.30;99.90;;;;;;5053187;28;20021;-62
2022/07/21 03:09:47;;;;;;;13.35;9.27;;;21.30;99.90;;;;;;5052855;28;20023;-62
2022/07/21 03:12:13;;;;;;;11.93;9.23;;;21.30;99.90;;;;;;5053108;28;20477;-62
2022/07/21 03:14:38;;;;;;;15.63;9.98;;;21.40;99.90;;;;;;5052743;28;20116;-62
2022/07/21 03:17:04;;;;;;;11.80;9.85;;;21.40;99.90;;;;;;5052514;28;20033;-62
2022/07/21 03:19:29;;;;;;;10.40;9.35;;;21.40;99.90;;;;;;5052538;28;20060;-62
2022/07/21 03:21:55;;;;;;;13.23;10.43;;;21.40;99.90;;;;;;5052604;28;20401;-62
2022/07/21 03:24:20;;;;;;;11.48;9.80;;;21.40;99.90;;;;;;5052612;28;20033;-63
2022/07/21 03:26:46;;;;;;;12.35;9.73;;;21.50;99.90;;;;;;5052590;28;20067;-62
2022/07/21 03:29:12;;;;;;;13.65;9.85;;;21.50;99.90;;;;;;5052690;28;20470;-61
2022/07/21 03:31:37;;;;;;;13.43;9.90;;;21.50;99.90;;;;;;5053016;28;20098;-62
2022/07/21 03:34:03;;;;;;;14.32;9.95;;;21.50;99.90;;;;;;5052820;28;20025;-61
2022/07/21 03:36:29;;;;;;;14.38;11.00;;;21.50;99.90;;;;;;5052472;28;20499;-61
2022/07/21 03:38:54;;;;;;;13.38;10.48;;;21.40;99.90;;;;;;5052649;28;20558;-62
2022/07/21 03:41:20;;;;;;;14.18;11.00;;;21.30;99.90;;;;;;5053173;28;20037;-62
2022/07/21 03:43:45;;;;;;;14.10;10.77;;;21.30;99.90;;;;;;5052372;28;20529;-60
2022/07/21 03:46:11;;;;;;;13.60;11.65;;;21.30;99.90;;;;;;5052268;28;20470;-61
2022/07/21 03:48:36;;;;;;;12.95;11.05;;;21.30;99.90;;;;;;5052500;28;20470;-63
2022/07/21 03:51:02;;;;;;;14.93;10.25;;;21.30;99.90;;;;;;5052736;28;20036;-60
2022/07/21 03:53:28;;;;;;;12.90;10.52;;;21.30;99.90;;;;;;5052371;28;20456;-63
2022/07/21 03:55:54;;;;;;;;;;;21.30;99.90;;;;;;5053101;28;20413;-60
2022/07/21 03:58:19;;;;;;;16.38;11.10;;;21.30;99.90;;;;;;5052531;28;19905;-61
2022/07/21 04:00:45;;;;;;;12.13;10.82;;;21.30;99.90;;;;;;5052248;28;20040;-61
2022/07/21 04:03:11;;;;;;;16.90;11.32;;;21.30;99.90;;;;;;5052436;28;20029;-61
2022/07/21 04:05:39;;;;;;;12.70;11.32;;;21.20;99.90;;;;;;5056407;28;20092;-62
2022/07/21 04:08:05;;;;;;;14.20;11.93;;;21.30;99.90;;;;;;5056117;28;20385;-62
2022/07/21 04:10:34;;;;;;;15.15;11.25;;;21.30;99.90;;;;;;5056378;28;20017;-61
2022/07/21 04:13:06;;;;;;;15.88;11.80;;;21.20;99.90;;;;;;5055905;28;20029;-60
2022/07/21 04:15:32;;;;;;;16.02;12.15;;;21.30;99.90;;;;;;5056690;28;20056;-60
2022/07/21 04:17:58;;;;;;;13.45;10.70;;;21.30;99.90;;;;;;5055926;28;20114;-61
2022/07/21 04:20:24;;;;;;;13.68;11.48;;;21.30;99.90;;;;;;5055692;28;20179;-61
2022/07/21 04:22:50;;;;;;;14.07;11.27;;;21.20;99.90;;;;;;5055630;28;20036;-62
2022/07/21 04:25:17;;;;;;;15.82;11.93;;;21.30;99.90;;;;;;5055380;28;20107;-60
2022/07/21 04:27:45;;;;;;;20.02;12.68;;;21.20;99.90;;;;;;5055330;28;20029;-62
2022/07/21 04:30:13;;;;;;;13.27;11.55;;;21.20;99.90;;;;;;5055339;28;20087;-62
2022/07/21 04:32:39;;;;;;;16.63;12.13;;;21.20;99.90;;;;;;5054008;28;20374;-61
2022/07/21 04:35:05;;;;;;;15.30;12.13;;;21.20;99.90;;;;;;5054954;28;20025;-61
2022/07/21 04:37:31;;;;;;;16.20;12.32;;;21.30;99.90;;;;;;5055551;28;20048;-61
2022/07/21 04:39:57;;;;;;;17.75;12.15;;;21.30;99.90;;;;;;5055296;28;20478;-61
2022/07/21 04:42:22;;;;;;;15.07;12.57;;;21.30;99.90;;;;;;5055123;28;20025;-60
2022/07/21 04:44:48;;;;;;;18.33;12.60;;;21.30;99.90;;;;;;5054955;28;20161;-61
2022/07/21 04:47:14;;;;;;;14.40;11.90;;;21.40;99.90;;;;;;5054952;28;20025;-61
2022/07/21 04:49:39;;;;;;;21.30;12.63;;;21.40;99.90;;;;;;5055193;28;20070;-60
2022/07/21 04:52:05;;;;;;;16.35;11.77;;;21.40;99.90;;;;;;5054968;28;20334;-60
2022/07/21 04:54:31;;;;;;;15.27;11.15;;;21.40;99.90;;;;;;5055579;28;20040;-59
2022/07/21 04:56:56;;;;;;;16.95;12.15;;;21.50;99.90;;;;;;5053833;28;20032;-61
2022/07/21 04:59:22;;;;;;;13.52;11.02;;;21.50;99.90;;;;;;5054713;28;20094;-61
2022/07/21 05:01:47;;;;;;;16.02;12.45;;;21.60;99.90;;;;;;5054951;28;20384;-61
2022/07/21 05:04:13;;;;;;;15.45;12.73;;;21.70;99.90;;;;;;5054713;28;20017;-61
2022/07/21 05:06:39;;;;;;;15.65;12.52;;;21.70;99.90;;;;;;5054447;28;20070;-62
2022/07/21 05:09:04;;;;;;;19.42;12.52;;;21.80;99.90;;;;;;5055112;28;20488;-63
2022/07/21 05:11:30;;;;;;;;;;;21.80;99.90;;;;;;5053690;28;20021;-61
2022/07/21 05:13:55;;;;;;;16.55;12.05;;;21.80;99.90;;;;;;5054486;28;19919;-62
2022/07/21 05:16:21;;;;;;;;;;;21.80;99.90;;;;;;5056026;28;20027;-62
2022/07/21 05:18:47;;;;;;;18.25;12.40;;;21.80;99.90;;;;;;5054642;28;19948;-61
2022/07/21 05:21:12;;;;;;;18.35;13.00;;;21.80;99.90;;;;;;5054888;28;20135;-61
2022/07/21 05:23:38;;;;;;;15.35;12.02;;;21.80;99.90;;;;;;5053513;28;20033;-63
2022/07/21 05:26:04;;;;;;;18.25;13.18;;;21.90;99.90;;;;;;5053376;28;20021;-62
2022/07/21 05:28:30;;;;;;;16.23;12.55;;;21.80;99.90;;;;;;5053011;28;20017;-63
2022/07/21 05:30:55;;;;;;;18.10;12.32;;;21.80;99.90;;;;;;5053935;28;20017;-62
2022/07/21 05:33:21;;;;;;;;;;;21.90;99.90;;;;;;5053974;28;20044;-61
2022/07/21 05:35:47;;;;;;;14.60;11.38;;;21.90;99.90;;;;;;5054084;28;20388;-62
2022/07/21 05:38:12;;;;;;;;;;;22.00;99.90;;;;;;5054775;28;20049;-60
2022/07/21 05:40:38;;;;;;;15.65;12.57;;;22.10;99.90;;;;;;5053963;28;19995;-62
2022/07/21 05:43:03;;;;;;;17.13;11.95;;;22.10;99.90;;;;;;5053377;28;20033;-63
2022/07/21 05:45:29;;;;;;;15.57;12.13;;;22.00;99.90;;;;;;5052961;28;20029;-60
2022/07/21 05:47:54;;;;;;;;;;;22.00;99.90;;;;;;5053355;28;20048;-61
2022/07/21 05:50:20;;;;;;;16.63;12.55;;;22.00;99.90;;;;;;5053087;28;19909;-61
2022/07/21 05:52:45;;;;;;;14.65;11.65;;;22.00;99.90;;;;;;5053363;28;20086;-62
2022/07/21 05:55:11;;;;;;;13.73;11.70;;;22.00;99.90;;;;;;5053616;28;20532;-61
2022/07/21 05:57:37;;;;;;;;;;;22.00;99.90;;;;;;5053773;28;20025;-62
2022/07/21 06:00:04;;;;;;;15.93;12.23;;;22.00;99.90;;;;;;5055038;28;19969;-61
2022/07/21 06:02:30;;;;;;;14.70;12.55;;;22.00;99.90;;;;;;5054303;28;20031;-61
2022/07/21 06:04:56;;;;;;;14.52;11.30;;;22.00;99.90;;;;;;5054536;28;20032;-59
2022/07/21 06:07:21;;;;;;;16.33;12.68;;;22.00;99.90;;;;;;5053446;28;20470;-61
2022/07/21 06:09:47;;;;;;;;;;;22.00;99.90;;;;;;5053936;28;20040;-61
2022/07/21 06:12:13;;;;;;;14.52;11.40;;;22.10;99.90;;;;;;5053504;28;19988;-60
2022/07/21 06:14:38;;;;;;;;;;;22.00;99.90;;;;;;5053695;28;20446;-60
2022/07/21 06:17:03;;;;;;;17.52;11.82;;;22.00;99.90;;;;;;5053161;28;19913;-61
2022/07/21 06:19:29;;;;;;;14.32;12.02;;;22.00;99.90;;;;;;5053579;28;20039;-60
2022/07/21 06:21:54;;;;;;;16.95;12.20;;;22.00;99.90;;;;;;5053095;28;20108;-61
2022/07/21 06:24:22;;;;;;;12.38;11.05;;;22.10;99.90;;;;;;5053271;28;20025;-61
2022/07/21 06:26:47;;;;;;;16.00;10.95;;;22.10;99.90;;;;;;5052659;28;20018;-61
2022/07/21 06:29:13;;;;;;;15.68;12.20;;;22.20;99.90;;;;;;5053256;28;20102;-59
2022/07/21 06:31:39;;;;;;;13.65;10.43;;;22.20;99.90;;;;;;5054304;28;20078;-59
2022/07/21 06:34:04;;;;;;;13.85;10.23;;;22.40;99.90;;;;;;5055801;28;20403;-60
2022/07/21 06:36:30;;;;;;;14.65;11.07;;;22.50;99.90;;;;;;5058555;28;20048;-60
2022/07/21 06:38:56;;;;;;;12.07;8.93;;;22.50;99.90;;;;;;5059371;28;20032;-61
2022/07/21 06:41:21;;;;;;;11.85;10.00;;;22.60;99.90;;;;;;5057202;28;20044;-60
2022/07/21 06:43:47;;;;;;;;;;;22.60;99.90;;;;;;5053896;28;20021;-60
2022/07/21 06:46:12;;;;;;;10.30;9.20;;;22.60;99.90;;;;;;5053405;28;19904;-59
2022/07/21 06:48:38;;;;;;;;;;;22.60;99.90;;;;;;5057646;28;20457;-60
2022/07/21 06:51:04;;;;;;;12.88;9.05;;;22.80;99.90;;;;;;5057214;28;20343;-60
2022/07/21 06:53:29;;;;;;;13.65;8.40;;;22.90;99.90;;;;;;5051789;28;20132;-60
2022/07/21 06:55:55;;;;;;;12.27;8.30;;;23.00;99.90;;;;;;5053045;28;20538;-61
2022/07/21 06:58:22;;;;;;;;;;;23.00;99.90;;;;;;5053977;28;20036;-61
2022/07/21 07:00:49;;;;;;;9.73;8.07;;;22.90;99.90;;;;;;5052997;28;19904;-61
2022/07/21 07:03:16;;;;;;;10.82;7.80;;;22.90;99.90;;;;;;5053586;28;20346;-58
2022/07/21 07:05:43;;;;;;;12.30;8.15;;;23.10;99.90;;;;;;5052921;28;20018;-61
2022/07/21 07:08:09;;;;;;;10.88;7.88;;;23.00;99.90;;;;;;5053133;28;20029;-55
2022/07/21 07:10:35;;;;;;;;;;;23.00;99.90;;;;;;5053608;28;20417;-57
2022/07/21 07:13:01;;;;;;;12.10;8.05;;;23.00;99.90;;;;;;5053069;28;19909;-60
2022/07/21 07:15:28;;;;;;;10.30;7.85;;;23.00;99.90;;;;;;5052746;28;20020;-58
2022/07/21 07:17:54;;;;;;;10.48;7.88;;;23.10;99.90;;;;;;5051535;28;20040;-58
2022/07/21 07:20:19;;;;;;;;;;;23.20;99.90;;;;;;5053577;28;20021;-61
2022/07/21 07:22:45;;;;;;;10.40;8.52;;;23.20;99.90;;;;;;5052674;28;19992;-60
2022/07/21 07:25:10;;;;;;;;;;;23.20;99.90;;;;;;5053173;28;20497;-60
2022/07/21 07:27:36;;;;;;;14.13;8.15;;;23.20;99.90;;;;;;5052743;28;19911;-59
2022/07/21 07:30:02;;;;;;;;;;;23.50;99.90;;;;;;5053026;28;20112;-59
2022/07/21 07:32:28;;;;;;;12.07;7.88;;;23.60;99.90;;;;;;5052912;28;19904;-61
2022/07/21 07:34:53;;;;;;;;;;;23.80;99.90;;;;;;5053036;28;20509;-59
2022/07/21 07:37:19;;;;;;;8.80;7.40;;;23.90;99.90;;;;;;5052670;28;19912;-63
2022/07/21 07:39:44;;;;;;;;;;;24.20;99.90;;;;;;5056494;28;20029;-64
2022/07/21 07:42:10;;;;;;;9.82;7.30;;;24.10;99.90;;;;;;5054982;28;19904;-64
2022/07/21 07:44:35;;;;;;;;;;;24.00;99.90;;;;;;5056905;28;20029;-64
2022/07/21 07:47:01;;;;;;;10.88;7.70;;;24.00;99.90;;;;;;5054869;28;19912;-65
2022/07/21 07:49:31;;;;;;;10.57;7.47;;;24.00;99.90;;;;;;5056495;28;20025;-65
2022/07/21 07:51:57;;;;;;;10.45;8.07;;;24.00;99.90;;;;;;5056490;28;20366;-64
2022/07/21 07:54:23;;;;;;;10.95;7.50;;;24.00;99.90;;;;;;5055417;28;20124;-64
2022/07/21 07:56:48;;;;;;;;;;;24.30;99.90;;;;;;5057094;28;20029;-66
2022/07/21 07:59:14;;;;;;;11.27;6.80;;;24.60;99.90;;;;;;5055391;28;19908;-63
2022/07/21 08:01:39;;;;;;;;;;;24.70;99.90;;;;;;5058590;28;20044;-63
2022/07/21 08:04:05;;;;;;;9.10;6.63;;;24.90;99.90;;;;;;5056958;28;19934;-64
2022/07/21 08:06:31;;;;;;;;;;;25.00;99.90;;;;;;5057354;28;20059;-64
2022/07/21 08:08:56;;;;;;;9.88;6.22;;;25.10;99.90;;;;;;5057843;28;19951;-65
2022/07/21 08:11:22;;;;;;;11.18;7.30;;;25.20;99.90;;;;;;5056781;28;20114;-64
2022/07/21 08:13:47;;;;;;;;;;;25.40;99.90;;;;;;5057429;28;20037;-65
2022/07/21 08:16:15;;;;;;;8.98;6.68;;;25.70;99.90;;;;;;5056818;28;19958;-65
2022/07/21 08:18:41;;;;;;;9.00;6.43;;;25.80;99.90;;;;;;5056644;28;20044;-64
2022/07/21 08:21:07;;;;;;;9.95;7.68;;;26.00;99.90;;;;;;5057978;28;20026;-65
2022/07/21 08:23:33;;;;;;;9.00;7.18;;;26.00;99.90;;;;;;5055904;28;20029;-65
2022/07/21 08:25:59;;;;;;;7.20;6.45;;;26.00;99.90;;;;;;5056679;28;20578;-65
2022/07/21 08:28:24;;;;;;;10.68;7.88;;;25.80;99.90;;;;;;5056081;28;20027;-65
2022/07/21 08:30:50;;;;;;;8.60;6.72;;;25.90;99.90;;;;;;5056155;28;20028;-64
2022/07/21 08:33:16;;;;;;;9.20;6.60;;;26.50;99.90;;;;;;5056581;28;20486;-64
2022/07/21 08:35:42;;;;;;;8.32;7.07;;;28.70;99.90;;;;;;5055261;28;20135;-66
2022/07/21 08:38:11;;;;;;;7.80;6.53;;;30.10;98.40;;;;;;5055138;28;20389;-65
2022/07/21 08:40:39;;;;;;;8.07;6.68;;;30.60;96.10;;;;;;5055115;28;20032;-64
2022/07/21 08:43:06;;;;;;;10.18;6.70;;;29.50;96.70;;;;;;5055695;28;20032;-64
2022/07/21 08:45:32;;;;;;;8.27;7.07;;;28.50;98.30;;;;;;5056444;28;20025;-64
2022/07/21 08:47:59;;;;;;;8.50;6.80;;;27.60;99.90;;;;;;5056306;28;20031;-65
2022/07/21 08:50:27;;;;;;;7.70;6.63;;;27.10;99.90;;;;;;5055979;28;20385;-64
2022/07/21 08:52:53;;;;;;;9.88;6.90;;;27.30;99.90;;;;;;5055011;28;20032;-64
2022/07/21 08:55:19;;;;;;;10.32;6.90;;;28.40;99.90;;;;;;5055216;28;20377;-65
2022/07/21 08:57:44;;;;;;;9.15;7.07;;;28.80;99.30;;;;;;5053527;28;20024;-65
2022/07/21 09:00:10;;;;;;;8.07;6.18;;;29.90;97.70;;;;;;5054832;28;20100;-64
2022/07/21 09:02:39;;;;;;;6.85;6.13;;;29.30;96.40;;;;;;5055065;28;20033;-64
2022/07/21 09:05:08;;;;;;;9.20;6.70;;;28.50;97.10;;;;;;5055342;28;20107;-64
2022/07/21 09:07:51;;;;;;;9.00;6.50;;;28.00;98.10;;;;;;5055185;28;20049;-63
2022/07/21 09:10:25;;;;;;;9.63;7.00;;;27.60;98.90;;;;;;5055430;28;20029;-63
2022/07/21 09:12:56;;;;;;;9.05;6.80;;;27.40;99.30;;;;;;5056128;28;20100;-64
2022/07/21 09:15:24;;;;;;;8.65;5.47;;;26.70;99.90;;;;;;5055677;28;20096;-64
2022/07/21 09:18:09;;;;;;;9.60;6.45;;;27.00;99.90;;;;;;5055236;28;20029;-65
2022/07/21 09:20:36;;;;;;;8.47;6.40;;;29.40;97.20;;;;;;5054178;28;20099;-65
2022/07/21 09:23:05;;;;;;;6.07;5.20;;;31.50;94.40;;;;;;5053848;28;20557;-64
2022/07/21 09:25:45;;;;;;;5.32;4.82;;;33.10;91.10;;;;;;5055099;28;20408;-64
2022/07/21 09:28:16;;;;;;;5.45;4.80;;;33.50;87.50;;;;;;5055429;28;20017;-65
2022/07/21 09:31:06;;;;;;;7.82;5.00;;;34.10;85.90;;;;;;5054761;28;20136;-65
2022/07/21 09:33:43;;;;;;;4.88;4.38;;;35.30;81.50;;;;;;5054878;28;20367;-64
2022/07/21 09:36:14;;;;;;;6.00;4.97;;;36.50;76.80;;;;;;5055104;28;20107;-65
2022/07/21 09:38:43;;;;;;;6.65;4.90;;;35.50;76.40;;;;;;5055054;28;20063;-65
2022/07/21 09:41:20;;;;;;;5.20;4.57;;;35.20;77.50;;;;;;5054693;28;20029;-65
2022/07/21 09:43:48;;;;;;;5.95;5.10;;;35.70;76.10;;;;;;5054296;28;20108;-65
2022/07/21 09:46:23;;;;;;;6.25;4.90;;;35.70;75.50;;;;;;5054436;28;20025;-65
2022/07/21 09:48:52;;;;;;;5.05;4.53;;;36.00;75.10;;;;;;5056280;28;20032;-65
2022/07/21 09:51:30;;;;;;;7.57;4.78;;;36.80;72.90;;;;;;5055746;28;20024;-65
2022/07/21 09:54:02;;;;;;;5.20;4.20;;;37.40;71.10;;;;;;5054817;28;20429;-65
2022/07/21 09:56:47;;;;;;;4.88;3.60;;;37.10;70.20;;;;;;5052586;28;20028;-66
2022/07/21 09:59:13;;;;;;;4.60;3.97;;;36.80;68.90;;;;;;5053874;28;20024;-65
2022/07/21 10:01:40;;;;;;;5.07;4.20;;;37.40;68.30;;;;;;5053029;28;20081;-65
2022/07/21 10:04:06;;;;;;;7.88;4.15;;;38.00;67.20;;;;;;5053819;28;20044;-64
2022/07/21 10:06:37;;;;;;;5.18;4.10;;;37.80;66.30;;;;;;5053631;28;20040;-65
2022/07/21 10:09:05;;;;;;;8.52;3.90;;;38.00;65.90;;;;;;5055018;28;20025;-65
2022/07/21 10:11:30;;;;;;;4.53;3.95;;;36.10;67.30;;;;;;5053701;28;20555;-65
2022/07/21 10:13:57;;;;;;;5.18;4.13;;;35.90;68.70;;;;;;5053446;28;20028;-65
2022/07/21 10:16:22;;;;;;;4.53;4.05;;;37.00;67.10;;;;;;5053391;28;20029;-65
2022/07/21 10:19:01;;;;;;;4.90;3.33;;;37.60;66.30;;;;;;5053283;28;20032;-65
2022/07/21 10:21:39;;;;;;;3.53;3.15;;;38.20;63.60;;;;;;5053496;28;20385;-65
2022/07/21 10:24:05;;;;;;;4.78;3.42;;;39.00;62.10;;;;;;5053288;28;20095;-65
2022/07/21 10:26:30;;;;;;;3.95;3.55;;;39.10;62.00;;;;;;5053794;28;20029;-68
2022/07/21 10:28:56;;;;;;;5.35;3.38;;;38.50;62.10;;;;;;5054234;28;20025;-67
2022/07/21 10:31:25;;;;;;;4.45;3.22;;;38.40;62.40;;;;;;5054165;28;20529;-67
2022/07/21 10:33:53;;;;;;;5.32;3.60;;;38.70;62.00;;;;;;5054129;28;20079;-67
2022/07/21 10:36:27;;;;;;;2.97;2.60;;;38.50;61.80;;;;;;5053354;28;20426;-66
2022/07/21 10:39:08;;;;;;;3.60;2.95;;;39.00;60.10;;;;;;5053164;28;20052;-68
2022/07/21 10:41:40;;;;;;;3.25;2.95;;;39.40;58.80;;;;;;5053150;28;20021;-67
2022/07/21 10:44:27;;;;;;;3.03;2.72;;;38.40;58.90;;;;;;5052752;28;20028;-67
2022/07/21 10:46:59;;;;;;;3.42;2.63;;;37.50;59.40;;;;;;5052742;28;20025;-67
2022/07/21 10:49:46;;;;;;;3.47;2.72;;;37.70;59.70;;;;;;5052836;28;20029;-67
2022/07/21 10:52:39;;;;;;;3.70;3.08;;;37.00;60.40;;;;;;5052997;28;20021;-66
2022/07/21 10:55:11;;;;;;;4.75;3.67;;;36.20;62.70;;;;;;5052331;28;20505;-67
2022/07/21 10:57:43;;;;;;;4.07;3.65;;;36.50;62.60;;;;;;5053806;28;20024;-68
2022/07/21 11:00:38;;;;;;;3.92;3.45;;;35.80;63.30;;;;;;5053554;28;20037;-67
2022/07/21 11:03:14;;;;;;;3.30;3.00;;;35.90;63.40;;;;;;4991194;28;20440;-67
2022/07/21 11:06:06;;;;;;;3.45;3.10;;;36.60;62.10;;;;;;4974870;28;20541;-66
2022/07/21 11:08:53;;;;;;;3.20;2.90;;;36.80;61.20;;;;;;4991238;28;20057;-66
2022/07/21 11:11:27;;;;;;;3.50;2.92;;;35.60;61.90;;;;;;4991125;28;20030;-67
2022/07/21 11:14:09;;;;;;;4.88;2.65;;;34.30;63.80;;;;;;4995533;28;20073;-66
2022/07/21 11:16:52;;;;;;;4.40;2.85;;;33.30;65.20;;;;;;4995313;28;20107;-65
2022/07/21 11:19:43;;;;;;;3.92;2.80;;;32.40;67.00;;;;;;4995507;28;20038;-65
2022/07/21 11:22:23;;;;;;;4.07;2.92;;;31.60;68.20;;;;;;4995419;28;20041;-66
2022/07/21 11:24:59;;;;;;;4.88;2.50;;;30.90;69.70;;;;;;4995380;28;20442;-66
2022/07/21 11:27:25;;;;;;;;;;;30.40;70.80;;;;;;4995629;28;20030;-66
2022/07/21 11:29:52;;;;;;;;;;;29.80;71.40;;;;;;4995742;28;20371;-66
2022/07/21 11:32:18;;;;;;;4.03;2.92;;;29.30;72.60;;;;;;4995109;28;19956;-66
2022/07/21 11:34:50;;;;;;;4.78;2.97;;;29.10;73.30;;;;;;4995323;28;20045;-66
2022/07/21 11:37:18;;;;;;;4.93;3.45;;;28.90;74.10;;;;;;4994458;28;20167;-66
2022/07/21 11:39:44;;;;;;;4.15;2.88;;;29.00;75.10;;;;;;5032807;28;20043;-65
2022/07/21 11:42:13;;;;;;;5.22;3.25;;;29.00;75.20;;;;;;5056504;28;20430;-66
2022/07/21 11:44:40;;;;;;;4.28;3.15;;;29.10;75.30;;;;;;5056856;28;20033;-66
2022/07/21 11:47:09;;;;;;;4.05;3.10;;;29.30;74.70;;;;;;5056681;28;20442;-64
2022/07/21 11:49:35;;;;;;;4.30;3.05;;;29.20;74.50;;;;;;5057228;28;20087;-64
2022/07/21 11:52:12;;;;;;;3.45;2.88;;;29.30;74.00;;;;;;5057280;28;20029;-63
2022/07/21 11:54:46;;;;;;;4.50;2.88;;;29.20;73.90;;;;;;5057233;28;20092;-64
2022/07/21 11:57:14;;;;;;;7.32;2.97;;;29.10;73.50;;;;;;5056451;28;20024;-65
2022/07/21 11:59:41;;;;;;;5.35;2.92;;;29.00;73.90;;;;;;5055780;28;20025;-65
2022/07/21 12:02:13;;;;;;;4.22;2.83;;;29.00;74.30;;;;;;5056160;28;20021;-64
2022/07/21 12:04:41;;;;;;;3.13;2.40;;;29.10;74.20;;;;;;5056279;28;20021;-65
2022/07/21 12:07:24;;;;;;;5.18;2.80;;;29.10;74.60;;;;;;5056154;28;20082;-64
2022/07/21 12:09:55;;;;;;;5.90;2.95;;;29.00;74.50;;;;;;5055417;28;20053;-66
2022/07/21 12:12:34;;;;;;;4.35;2.67;;;29.00;73.60;;;;;;5056516;28;20025;-66
2022/07/21 12:15:10;;;;;;;3.00;2.42;;;28.90;73.30;;;;;;5056683;28;20028;-66
2022/07/21 12:17:39;;;;;;;4.40;2.67;;;28.80;73.40;;;;;;5056665;28;20033;-67
2022/07/21 12:20:06;;;;;;;4.72;2.97;;;28.80;74.00;;;;;;5054992;28;20123;-67
2022/07/21 12:22:38;;;;;;;3.75;2.67;;;28.90;74.60;;;;;;5056366;28;20542;-66
2022/07/21 12:25:07;;;;;;;6.07;2.67;;;29.00;75.10;;;;;;5055337;28;20116;-67
2022/07/21 12:27:35;;;;;;;4.03;3.00;;;29.00;75.30;;;;;;5056303;28;20048;-64
2022/07/21 12:30:01;;;;;;;3.63;2.72;;;29.10;74.20;;;;;;5056283;28;20032;-66
2022/07/21 12:32:45;;;;;;;3.97;2.45;;;29.10;74.10;;;;;;5056047;28;20112;-64
2022/07/21 12:35:21;;;;;;;4.18;3.33;;;29.10;74.00;;;;;;5055594;28;20141;-65
2022/07/21 12:38:00;;;;;;;5.30;2.70;;;29.00;72.80;;;;;;5056246;28;20082;-66
2022/07/21 12:40:28;;;;;;;2.83;2.53;;;29.00;73.80;;;;;;5055910;28;20021;-66
2022/07/21 12:43:06;;;;;;;3.15;2.55;;;28.90;74.90;;;;;;5055702;28;20384;-66
2022/07/21 12:45:43;;;;;;;3.47;2.80;;;29.10;75.50;;;;;;5055278;28;20031;-67
2022/07/21 12:48:10;;;;;;;6.38;2.63;;;29.00;75.00;;;;;;5055948;28;20485;-67
2022/07/21 12:50:39;;;;;;;3.50;2.58;;;29.00;73.10;;;;;;5055621;28;20044;-66
2022/07/21 12:53:12;;;;;;;3.17;2.25;;;29.00;73.90;;;;;;5055763;28;20470;-67